createdAt,value
2023-04-30T00:01:55.989Z,99.90
2023-04-30T00:04:44.735Z,99.90
2023-04-30T00:07:34.173Z,99.90
2023-04-30T00:10:24.423Z,99.90
2023-04-30T00:13:14.478Z,99.90
2023-04-30T00:16:03.779Z,99.90
2023-04-30T00:18:53.017Z,99.90
2023-04-30T00:21:41.774Z,99.90
2023-04-30T00:24:30.956Z,99.90
2023-04-30T00:27:21.329Z,99.90
2023-04-30T00:30:10.861Z,99.90
2023-04-30T00:32:59.734Z,99.90
2023-04-30T00:35:48.554Z,99.90
2023-04-30T00:38:37.364Z,99.90
2023-04-30T00:41:27.351Z,99.90
2023-04-30T00:44:17.533Z,99.90
2023-04-30T00:47:07.348Z,99.90
2023-04-30T00:49:56.359Z,99.90
2023-04-30T00:52:45.565Z,99.90
2023-04-30T00:55:34.373Z,99.90
2023-04-30T00:58:24.020Z,99.90
2023-04-30T01:01:14.639Z,99.90
2023-04-30T01:04:03.499Z,99.90
2023-04-30T01:06:52.893Z,99.90
2023-04-30T01:09:41.988Z,99.90
2023-04-30T01:12:47.250Z,99.90
2023-04-30T01:15:43.221Z,99.90
2023-04-30T01:18:41.064Z,99.90
2023-04-30T01:21:33.415Z,99.90
2023-04-30T01:24:36.549Z,99.90
2023-04-30T01:27:41.542Z,99.90
2023-04-30T01:30:33.505Z,99.90
2023-04-30T01:33:22.191Z,99.90
2023-04-30T01:36:26.145Z,99.90
2023-04-30T01:39:31.011Z,99.90
2023-04-30T01:42:23.423Z,99.90
2023-04-30T01:45:28.707Z,99.90
2023-04-30T01:48:39.528Z,99.90
2023-04-30T01:51:36.459Z,99.90
2023-04-30T01:54:31.656Z,99.90
2023-04-30T01:57:26.704Z,99.90
2023-04-30T02:00:18.062Z,99.90
2023-04-30T02:03:07.063Z,99.90
2023-04-30T02:05:59.261Z,99.90
2023-04-30T02:08:47.983Z,99.90
2023-04-30T02:11:36.823Z,99.90
2023-04-30T02:14:25.533Z,99.90
2023-04-30T02:17:15.251Z,99.90
2023-04-30T02:20:05.060Z,99.90
2023-04-30T02:22:55.126Z,99.90
2023-04-30T02:25:44.862Z,99.90
2023-04-30T02:28:33.951Z,99.90
2023-04-30T02:31:22.685Z,99.90
2023-04-30T02:34:11.803Z,99.90
2023-04-30T02:37:01.034Z,99.90
2023-04-30T02:39:51.747Z,99.90
2023-04-30T02:42:40.372Z,99.90
2023-04-30T02:45:29.221Z,99.90
2023-04-30T02:48:18.095Z,99.90
2023-04-30T02:51:07.537Z,99.90
2023-04-30T02:53:56.166Z,99.90
2023-04-30T02:56:46.309Z,99.90
2023-04-30T02:59:35.290Z,99.90
2023-04-30T03:02:24.575Z,99.90
2023-04-30T03:05:15.313Z,99.90
2023-04-30T03:08:04.022Z,99.90
2023-04-30T03:10:52.799Z,99.90
2023-04-30T03:13:44.024Z,99.90
2023-04-30T03:16:32.873Z,99.90
2023-04-30T03:19:25.494Z,99.90
2023-04-30T03:22:14.276Z,99.90
2023-04-30T03:25:03.602Z,99.90
2023-04-30T03:27:52.382Z,99.90
2023-04-30T03:30:42.784Z,99.90
2023-04-30T03:33:32.234Z,99.90
2023-04-30T03:36:21.209Z,99.90
2023-04-30T03:39:10.573Z,99.90
2023-04-30T03:41:59.330Z,99.90
2023-04-30T03:44:52.467Z,99.90
2023-04-30T03:47:56.793Z,99.90
2023-04-30T03:50:46.469Z,99.90
2023-04-30T03:53:35.285Z,99.90
2023-04-30T03:56:25.872Z,99.90
2023-04-30T03:59:14.704Z,99.90
2023-04-30T04:02:04.033Z,99.90
2023-04-30T04:04:54.727Z,99.90
2023-04-30T04:07:43.603Z,99.90
2023-04-30T04:10:32.635Z,99.90
2023-04-30T04:13:21.322Z,99.90
2023-04-30T04:16:10.021Z,99.90
2023-04-30T04:18:59.344Z,99.90
2023-04-30T04:21:49.632Z,99.90
2023-04-30T04:24:39.871Z,99.90
2023-04-30T04:27:29.041Z,99.90
2023-04-30T04:30:17.849Z,99.90
2023-04-30T04:33:07.145Z,99.90
2023-04-30T04:35:58.221Z,99.90
2023-04-30T04:38:51.290Z,99.90
2023-04-30T04:41:40.246Z,99.90
2023-04-30T04:44:29.548Z,99.90
2023-04-30T04:47:19.954Z,99.90
2023-04-30T04:50:10.040Z,99.90
2023-04-30T04:52:58.898Z,99.90
2023-04-30T04:55:49.076Z,99.90
2023-04-30T04:58:37.813Z,99.90
2023-04-30T05:01:27.054Z,99.90
2023-04-30T05:04:16.512Z,99.90
2023-04-30T05:07:08.269Z,99.90
2023-04-30T05:09:57.344Z,99.90
2023-04-30T05:12:47.816Z,99.90
2023-04-30T05:15:36.582Z,99.90
2023-04-30T05:18:25.340Z,99.90
2023-04-30T05:21:14.073Z,99.90
2023-04-30T05:24:03.050Z,99.90
2023-04-30T05:26:54.969Z,99.90
2023-04-30T05:29:45.072Z,99.90
2023-04-30T05:32:34.171Z,99.90
2023-04-30T05:35:23.137Z,99.90
2023-04-30T05:38:12.140Z,99.90
2023-04-30T05:41:01.628Z,99.90
2023-04-30T05:43:50.285Z,99.90
2023-04-30T05:46:40.458Z,99.90
2023-04-30T05:49:29.248Z,99.90
2023-04-30T05:52:18.596Z,99.90
2023-04-30T05:55:08.455Z,99.90
2023-04-30T05:57:57.586Z,99.90
2023-04-30T06:00:49.916Z,99.90
2023-04-30T06:03:40.387Z,99.90
2023-04-30T06:06:29.217Z,99.90
2023-04-30T06:09:17.963Z,99.90
2023-04-30T06:12:07.538Z,99.90
2023-04-30T06:14:56.516Z,99.90
2023-04-30T06:17:45.718Z,99.90
2023-04-30T06:20:36.073Z,99.90
2023-04-30T06:23:25.003Z,99.90
2023-04-30T06:26:15.475Z,99.90
2023-04-30T06:29:05.109Z,99.90
2023-04-30T06:31:53.951Z,99.90
2023-04-30T06:34:42.772Z,99.90
2023-04-30T06:37:37.939Z,99.90
2023-04-30T06:40:26.860Z,99.90
2023-04-30T06:43:15.783Z,99.90
2023-04-30T06:46:05.012Z,99.90
2023-04-30T06:48:54.259Z,99.90
2023-04-30T06:51:43.103Z,99.90
2023-04-30T06:54:33.461Z,99.90
2023-04-30T06:57:22.137Z,99.90
2023-04-30T07:00:11.615Z,99.90
2023-04-30T07:03:02.853Z,99.90
2023-04-30T07:05:51.821Z,99.90
2023-04-30T07:08:41.498Z,99.90
2023-04-30T07:11:35.613Z,99.90
2023-04-30T07:14:24.998Z,99.90
2023-04-30T07:17:13.659Z,99.90
2023-04-30T07:20:02.382Z,99.90
2023-04-30T07:22:50.991Z,99.90
2023-04-30T07:25:39.675Z,99.90
2023-04-30T07:28:29.756Z,99.90
2023-04-30T07:31:19.470Z,99.30
2023-04-30T07:34:08.842Z,99.30
2023-04-30T07:36:57.869Z,98.30
2023-04-30T07:39:46.584Z,98.60
2023-04-30T07:42:35.303Z,97.70
2023-04-30T07:45:25.392Z,96.40
2023-04-30T07:48:14.096Z,96.50
2023-04-30T07:51:04.937Z,94.90
2023-04-30T07:53:54.146Z,94.90
2023-04-30T07:56:42.949Z,93.80
2023-04-30T07:59:31.699Z,93.60
2023-04-30T08:02:22.201Z,93.90
2023-04-30T08:05:11.314Z,91.60
2023-04-30T08:08:00.023Z,90.70
2023-04-30T08:10:48.703Z,90.20
2023-04-30T08:13:37.390Z,90.50
2023-04-30T08:16:26.149Z,86.50
2023-04-30T08:19:16.380Z,82.70
2023-04-30T08:22:05.581Z,84.30
2023-04-30T08:24:55.830Z,80.90
2023-04-30T08:27:44.528Z,82.40
2023-04-30T08:30:33.343Z,80.00
2023-04-30T08:33:22.099Z,78.80
2023-04-30T08:36:12.198Z,77.60
2023-04-30T08:39:02.171Z,76.70
2023-04-30T08:41:56.049Z,73.80
2023-04-30T08:44:46.711Z,73.50
2023-04-30T08:47:35.624Z,73.70
2023-04-30T08:50:24.574Z,71.80
2023-04-30T08:53:17.526Z,69.80
2023-04-30T08:56:06.838Z,69.30
2023-04-30T08:58:55.613Z,67.40
2023-04-30T09:01:44.251Z,65.10
2023-04-30T09:04:33.273Z,65.00
2023-04-30T09:07:25.557Z,63.30
2023-04-30T09:10:19.869Z,62.10
2023-04-30T09:13:09.683Z,61.30
2023-04-30T09:16:01.390Z,57.40
2023-04-30T09:18:50.584Z,55.60
2023-04-30T09:21:39.546Z,55.50
2023-04-30T09:24:28.263Z,54.80
2023-04-30T09:27:23.297Z,53.70
2023-04-30T09:30:32.621Z,53.60
2023-04-30T09:33:21.572Z,53.20
2023-04-30T09:36:11.682Z,52.10
2023-04-30T09:39:10.781Z,51.70
2023-04-30T09:42:10.224Z,50.00
2023-04-30T09:45:00.502Z,51.20
2023-04-30T09:47:49.729Z,49.40
2023-04-30T09:50:43.288Z,46.90
2023-04-30T09:53:32.496Z,45.70
2023-04-30T09:56:24.529Z,45.10
2023-04-30T09:59:14.788Z,44.90
2023-04-30T10:02:07.065Z,45.30
2023-04-30T10:04:59.345Z,43.70
2023-04-30T10:07:48.057Z,43.30
2023-04-30T10:10:39.682Z,43.80
2023-04-30T10:13:31.629Z,44.10
2023-04-30T10:16:32.065Z,44.60
2023-04-30T10:19:25.416Z,43.50
2023-04-30T10:22:14.660Z,43.50
2023-04-30T10:25:04.462Z,42.20
2023-04-30T10:27:53.296Z,41.40
2023-04-30T10:30:43.782Z,41.90
2023-04-30T10:33:39.410Z,41.80
2023-04-30T10:36:38.703Z,40.20
2023-04-30T10:39:28.987Z,39.80
2023-04-30T10:42:18.928Z,39.30
2023-04-30T10:45:13.154Z,40.00
2023-04-30T10:48:03.765Z,39.60
2023-04-30T10:50:53.489Z,39.10
2023-04-30T10:53:45.642Z,38.90
2023-04-30T10:56:35.604Z,39.70
2023-04-30T10:59:24.678Z,39.20
2023-04-30T11:02:14.231Z,39.30
2023-04-30T11:05:14.607Z,39.20
2023-04-30T11:08:03.728Z,39.10
2023-04-30T11:11:01.965Z,38.80
2023-04-30T11:14:01.350Z,37.20
2023-04-30T11:16:51.442Z,37.30
2023-04-30T11:19:49.911Z,37.70
2023-04-30T11:22:40.448Z,37.30
2023-04-30T11:25:41.440Z,35.40
2023-04-30T11:28:34.834Z,35.90
2023-04-30T11:31:24.102Z,35.90
2023-04-30T11:34:13.944Z,35.80
2023-04-30T11:37:04.794Z,34.90
2023-04-30T11:39:54.334Z,36.10
2023-04-30T11:42:46.694Z,35.60
2023-04-30T11:45:36.940Z,34.40
2023-04-30T11:48:25.767Z,33.90
2023-04-30T11:51:18.632Z,34.50
2023-04-30T11:54:10.529Z,33.70
2023-04-30T11:57:04.233Z,33.40
2023-04-30T11:59:53.541Z,33.00
2023-04-30T12:02:44.800Z,32.10
2023-04-30T12:05:33.818Z,31.90
2023-04-30T12:08:22.823Z,31.50
2023-04-30T12:11:25.899Z,30.50
2023-04-30T12:14:15.383Z,30.80
2023-04-30T12:17:15.207Z,31.40
2023-04-30T12:20:06.988Z,30.20
2023-04-30T12:22:56.213Z,31.10
2023-04-30T12:25:45.188Z,33.10
2023-04-30T12:28:36.476Z,36.00
2023-04-30T12:34:16.164Z,39.80
2023-04-30T12:37:07.934Z,41.80
2023-04-30T12:39:57.908Z,44.50
2023-04-30T12:42:47.336Z,44.50
2023-04-30T12:45:47.795Z,44.70
2023-04-30T12:48:45.917Z,45.10
2023-04-30T12:54:32.623Z,43.10
2023-04-30T12:57:21.758Z,45.60
2023-04-30T13:00:12.623Z,47.10
2023-04-30T13:03:02.174Z,48.00
2023-04-30T13:05:54.137Z,48.10
2023-04-30T13:08:57.047Z,48.00
2023-04-30T13:11:51.017Z,49.70
2023-04-30T13:14:40.110Z,50.20
2023-04-30T13:17:29.538Z,50.00
2023-04-30T13:20:18.626Z,48.60
2023-04-30T13:23:07.873Z,49.70
2023-04-30T13:25:56.792Z,50.00
2023-04-30T13:28:46.883Z,48.90
2023-04-30T13:31:35.674Z,49.70
2023-04-30T13:34:24.806Z,50.70
2023-04-30T13:37:13.672Z,50.10
2023-04-30T13:40:04.026Z,51.00
2023-04-30T13:42:52.818Z,50.50
2023-04-30T13:45:43.039Z,50.90
2023-04-30T13:48:32.315Z,50.50
2023-04-30T13:51:25.469Z,51.10
2023-04-30T13:54:14.260Z,51.40
2023-04-30T13:57:03.644Z,51.80
2023-04-30T13:59:52.938Z,52.20
2023-04-30T14:02:43.387Z,52.10
2023-04-30T14:05:32.391Z,52.20
2023-04-30T14:08:23.311Z,50.90
2023-04-30T14:11:12.626Z,51.10
2023-04-30T14:14:01.623Z,51.50
2023-04-30T14:16:51.023Z,52.20
2023-04-30T14:19:41.696Z,52.00
2023-04-30T14:22:30.400Z,51.50
2023-04-30T14:25:19.510Z,51.60
2023-04-30T14:28:08.163Z,53.50
2023-04-30T14:30:57.544Z,53.50
2023-04-30T14:33:46.935Z,52.70
2023-04-30T14:36:38.486Z,52.00
2023-04-30T14:39:28.173Z,52.10
2023-04-30T14:42:17.694Z,51.70
2023-04-30T14:45:08.277Z,52.00
2023-04-30T14:47:57.169Z,53.00
2023-04-30T14:50:46.515Z,52.00
2023-04-30T14:53:37.590Z,53.20
2023-04-30T14:56:26.454Z,53.20
2023-04-30T14:59:15.319Z,52.30
2023-04-30T15:02:04.281Z,53.80
2023-04-30T15:04:53.037Z,53.00
2023-04-30T15:07:41.895Z,53.60
2023-04-30T15:10:32.496Z,53.50
2023-04-30T15:13:21.329Z,52.40
2023-04-30T15:16:10.078Z,53.80
2023-04-30T15:18:58.853Z,54.00
2023-04-30T15:21:49.095Z,54.20
2023-04-30T15:24:38.342Z,54.00
2023-04-30T15:27:29.437Z,54.10
2023-04-30T15:30:19.191Z,53.50
2023-04-30T15:33:08.001Z,52.80
2023-04-30T15:35:56.853Z,53.80
2023-04-30T15:38:45.645Z,54.60
2023-04-30T15:41:34.244Z,53.80
2023-04-30T15:44:24.255Z,53.90
2023-04-30T15:47:13.168Z,52.90
2023-04-30T15:50:02.727Z,53.20
2023-04-30T15:52:51.628Z,54.00
2023-04-30T15:55:40.601Z,54.50
2023-04-30T15:58:29.440Z,53.60
2023-04-30T16:01:20.011Z,53.70
2023-04-30T16:04:08.781Z,54.20
2023-04-30T16:06:58.291Z,53.90
2023-04-30T16:09:49.204Z,54.30
2023-04-30T16:12:38.074Z,54.20
2023-04-30T16:15:27.719Z,55.10
2023-04-30T16:18:17.865Z,54.40
2023-04-30T16:21:09.322Z,55.50
2023-04-30T16:23:58.327Z,54.80
2023-04-30T16:26:47.050Z,54.70
2023-04-30T16:29:35.950Z,55.70
2023-04-30T16:32:24.567Z,55.40
2023-04-30T16:35:14.760Z,55.40
2023-04-30T16:38:04.020Z,55.00
2023-04-30T16:40:56.274Z,55.70
2023-04-30T16:43:45.963Z,55.00
2023-04-30T16:46:35.487Z,56.00
2023-04-30T16:49:24.796Z,56.40
2023-04-30T16:52:19.087Z,55.80
2023-04-30T16:55:10.646Z,56.00
2023-04-30T16:58:00.148Z,55.30
2023-04-30T17:00:49.885Z,56.90
2023-04-30T17:03:39.231Z,56.10
2023-04-30T17:06:28.025Z,55.90
2023-04-30T17:09:19.760Z,56.10
2023-04-30T17:12:08.584Z,55.90
2023-04-30T17:14:57.743Z,56.00
2023-04-30T17:17:46.589Z,56.20
2023-04-30T17:20:35.402Z,56.70
2023-04-30T17:23:25.716Z,56.50
2023-04-30T17:26:15.878Z,56.30
2023-04-30T17:29:06.345Z,56.50
2023-04-30T17:31:55.007Z,56.10
2023-04-30T17:34:43.799Z,56.90
2023-04-30T17:37:32.548Z,56.10
2023-04-30T17:40:21.207Z,56.50
2023-04-30T17:43:11.482Z,56.80
2023-04-30T17:46:05.655Z,57.90
2023-04-30T17:48:54.900Z,57.40
2023-04-30T17:51:43.547Z,56.90
2023-04-30T17:54:35.367Z,57.50
2023-04-30T17:57:25.358Z,57.40
2023-04-30T18:00:17.044Z,58.40
2023-04-30T18:03:07.384Z,58.40
2023-04-30T18:05:56.403Z,57.90
2023-04-30T18:08:46.057Z,58.50
2023-04-30T18:11:34.808Z,57.50
2023-04-30T18:14:23.562Z,58.10
2023-04-30T18:17:15.280Z,57.70
2023-04-30T18:20:05.416Z,58.40
2023-04-30T18:22:54.109Z,58.40
2023-04-30T18:25:43.790Z,59.30
2023-04-30T18:28:32.736Z,58.60
2023-04-30T18:31:21.602Z,59.50
2023-04-30T18:34:11.778Z,59.30
2023-04-30T18:37:00.710Z,59.30
2023-04-30T18:39:51.346Z,59.00
2023-04-30T18:42:40.158Z,59.50
2023-04-30T18:45:29.008Z,59.90
2023-04-30T18:48:19.188Z,60.20
2023-04-30T18:51:09.540Z,59.80
2023-04-30T18:53:58.505Z,59.60
2023-04-30T18:56:47.466Z,60.30
2023-04-30T18:59:36.349Z,60.10
2023-04-30T19:02:25.364Z,60.90
2023-04-30T19:05:14.252Z,60.80
2023-04-30T19:08:04.785Z,60.70
2023-04-30T19:10:54.111Z,60.50
2023-04-30T19:13:42.781Z,60.70
2023-04-30T19:16:31.700Z,61.20
2023-04-30T19:19:20.690Z,61.20
2023-04-30T19:22:09.464Z,60.60
2023-04-30T19:24:59.739Z,61.60
2023-04-30T19:27:48.961Z,60.30
2023-04-30T19:30:37.732Z,61.00
2023-04-30T19:33:27.830Z,61.10
2023-04-30T19:36:17.376Z,61.30
2023-04-30T19:39:10.233Z,61.70
2023-04-30T19:42:00.850Z,61.70
2023-04-30T19:44:52.448Z,61.30
2023-04-30T19:47:41.356Z,62.00
2023-04-30T19:50:30.429Z,62.60
2023-04-30T19:53:19.630Z,62.60
2023-04-30T19:56:08.771Z,62.30
2023-04-30T19:58:59.065Z,62.60
2023-04-30T20:01:48.780Z,63.10
2023-04-30T20:04:38.400Z,62.80
2023-04-30T20:07:27.207Z,63.50
2023-04-30T20:10:16.052Z,63.80
2023-04-30T20:13:05.572Z,63.90
2023-04-30T20:15:55.716Z,63.80
2023-04-30T20:18:44.609Z,64.00
2023-04-30T20:21:37.256Z,64.60
2023-04-30T20:24:26.033Z,65.00
2023-04-30T20:27:14.932Z,65.10
2023-04-30T20:30:05.464Z,64.70
2023-04-30T20:32:55.848Z,65.40
2023-04-30T20:35:45.720Z,65.60
2023-04-30T20:38:34.756Z,65.80
2023-04-30T20:41:23.595Z,66.50
2023-04-30T20:44:12.235Z,67.40
2023-04-30T20:47:01.262Z,68.60
2023-04-30T20:49:52.384Z,67.90
2023-04-30T20:52:41.568Z,68.20
2023-04-30T20:55:30.961Z,68.30
2023-04-30T20:58:19.750Z,68.70
2023-04-30T21:01:08.673Z,68.30
2023-04-30T21:03:57.605Z,68.50
2023-04-30T21:06:48.094Z,68.70
2023-04-30T21:09:38.403Z,69.50
2023-04-30T21:12:28.053Z,70.00
2023-04-30T21:15:17.404Z,70.20
2023-04-30T21:18:06.131Z,70.60
2023-04-30T21:20:56.517Z,71.00
2023-04-30T21:23:48.330Z,70.90
2023-04-30T21:26:37.367Z,71.00
2023-04-30T21:29:26.563Z,72.20
2023-04-30T21:32:17.234Z,71.30
2023-04-30T21:35:07.126Z,71.40
2023-04-30T21:37:56.211Z,71.30
2023-04-30T21:40:46.377Z,70.00
2023-04-30T21:43:35.323Z,70.60
2023-04-30T21:46:24.402Z,70.30
2023-04-30T21:49:13.766Z,69.90
2023-04-30T21:52:04.195Z,70.90
2023-04-30T21:54:52.929Z,70.90
2023-04-30T21:57:43.046Z,71.70
2023-04-30T22:00:32.412Z,72.50
2023-04-30T22:03:24.908Z,73.70
2023-04-30T22:06:13.967Z,74.40
2023-04-30T22:09:04.564Z,74.90
2023-04-30T22:11:53.840Z,75.20
2023-04-30T22:14:45.483Z,75.90
2023-04-30T22:17:37.942Z,76.70
2023-04-30T22:20:27.376Z,77.20
2023-04-30T22:23:16.706Z,77.30
2023-04-30T22:26:09.920Z,77.30
2023-04-30T22:28:59.182Z,78.40
2023-04-30T22:31:49.860Z,79.50
2023-04-30T22:34:41.075Z,79.30
2023-04-30T22:37:31.367Z,79.70
2023-04-30T22:40:20.706Z,80.50
2023-04-30T22:43:11.195Z,81.10
2023-04-30T22:46:01.473Z,80.80
2023-04-30T22:48:51.776Z,81.30
2023-04-30T22:51:40.489Z,82.10
2023-04-30T22:54:29.702Z,82.50
2023-04-30T22:57:18.408Z,82.50
2023-04-30T23:00:09.684Z,82.40
2023-04-30T23:02:58.447Z,82.20
2023-04-30T23:05:51.672Z,82.90
2023-04-30T23:08:44.405Z,83.40
2023-04-30T23:11:33.298Z,83.60
2023-04-30T23:14:22.266Z,83.20
2023-04-30T23:17:11.000Z,83.20
2023-04-30T23:19:59.702Z,83.70
2023-04-30T23:22:50.251Z,84.20
2023-04-30T23:25:39.138Z,84.40
2023-04-30T23:28:27.921Z,85.00
2023-04-30T23:31:18.048Z,85.30
2023-04-30T23:34:07.022Z,84.90
2023-04-30T23:36:55.784Z,85.60
2023-04-30T23:39:45.921Z,85.70
2023-04-30T23:42:35.665Z,85.70
2023-04-30T23:45:24.610Z,85.70
2023-04-30T23:48:13.386Z,86.50
2023-04-30T23:51:02.575Z,86.20
2023-04-30T23:53:51.470Z,86.30
2023-04-30T23:56:41.803Z,87.30
2023-04-30T23:59:30.612Z,87.10
